Terminal Aerodrome Forecast
Issued by NWS

Home | Current Version | Previous Version | Text Only | Print | Product List | Glossary On
Versions: 1 2 3 4 5 6 7 8 9 10 11 12
163
FTPA31 PHFO 252338
TAFHLI
TAF
PHLI 252338Z 2600/2624 04010KT P6SM FEW035
     FM261000 30006KT P6SM SCT025 SCT035
     FM261900 05010KT P6SM FEW035=

USA.gov is the U.S. government's official web portal to all federal, state and local government web resources and services.